sensor_id;sensor_type;location;lat;lon;timestamp;P1;durP1;ratioP1;P2;durP2;ratioP2
67072;SDS011;58443;48.054;-1.616;2022-07-11T00:02:06;2.77;;;0.70;;
67072;SDS011;58443;48.054;-1.616;2022-07-11T00:04:33;2.78;;;0.70;;
67072;SDS011;58443;48.054;-1.616;2022-07-11T00:06:59;2.50;;;0.63;;
67072;SDS011;58443;48.054;-1.616;2022-07-11T00:09:26;2.60;;;0.70;;
67072;SDS011;58443;48.054;-1.616;2022-07-11T00:11:52;2.60;;;0.70;;
67072;SDS011;58443;48.054;-1.616;2022-07-11T00:14:19;2.97;;;0.70;;
67072;SDS011;58443;48.054;-1.616;2022-07-11T00:16:46;2.67;;;0.77;;
67072;SDS011;58443;48.054;-1.616;2022-07-11T00:19:12;2.90;;;0.68;;
67072;SDS011;58443;48.054;-1.616;2022-07-11T00:21:38;3.45;;;0.80;;
67072;SDS011;58443;48.054;-1.616;2022-07-11T00:24:04;3.00;;;0.70;;
67072;SDS011;58443;48.054;-1.616;2022-07-11T00:26:32;2.57;;;0.90;;
67072;SDS011;58443;48.054;-1.616;2022-07-11T00:28:58;3.35;;;0.80;;
67072;SDS011;58443;48.054;-1.616;2022-07-11T00:31:24;3.05;;;0.90;;
67072;SDS011;58443;48.054;-1.616;2022-07-11T00:33:50;2.17;;;0.70;;
67072;SDS011;58443;48.054;-1.616;2022-07-11T00:36:16;2.17;;;0.70;;
67072;SDS011;58443;48.054;-1.616;2022-07-11T00:38:42;2.73;;;0.67;;
67072;SDS011;58443;48.054;-1.616;2022-07-11T00:41:09;3.00;;;0.80;;
67072;SDS011;58443;48.054;-1.616;2022-07-11T00:43:37;3.13;;;0.80;;
67072;SDS011;58443;48.054;-1.616;2022-07-11T00:46:04;2.88;;;0.80;;
67072;SDS011;58443;48.054;-1.616;2022-07-11T00:48:30;2.47;;;0.68;;
67072;SDS011;58443;48.054;-1.616;2022-07-11T00:50:56;2.93;;;0.80;;
67072;SDS011;58443;48.054;-1.616;2022-07-11T00:53:23;3.30;;;0.75;;
67072;SDS011;58443;48.054;-1.616;2022-07-11T00:55:50;2.90;;;0.80;;
67072;SDS011;58443;48.054;-1.616;2022-07-11T00:58:20;2.75;;;0.70;;
67072;SDS011;58443;48.054;-1.616;2022-07-11T01:00:47;2.67;;;0.60;;
67072;SDS011;58443;48.054;-1.616;2022-07-11T01:03:13;2.93;;;0.90;;
67072;SDS011;58443;48.054;-1.616;2022-07-11T01:05:39;2.75;;;0.80;;
67072;SDS011;58443;48.054;-1.616;2022-07-11T01:08:06;2.42;;;0.60;;
67072;SDS011;58443;48.054;-1.616;2022-07-11T01:10:32;4.07;;;0.82;;
67072;SDS011;58443;48.054;-1.616;2022-07-11T01:12:58;2.80;;;0.70;;
67072;SDS011;58443;48.054;-1.616;2022-07-11T01:15:25;4.40;;;0.80;;
67072;SDS011;58443;48.054;-1.616;2022-07-11T01:17:51;2.30;;;0.70;;
67072;SDS011;58443;48.054;-1.616;2022-07-11T01:20:17;2.20;;;0.65;;
67072;SDS011;58443;48.054;-1.616;2022-07-11T01:22:46;2.50;;;0.88;;
67072;SDS011;58443;48.054;-1.616;2022-07-11T01:25:16;3.30;;;0.90;;
67072;SDS011;58443;48.054;-1.616;2022-07-11T01:30:27;2.60;;;0.70;;
67072;SDS011;58443;48.054;-1.616;2022-07-11T01:32:54;3.20;;;0.68;;
67072;SDS011;58443;48.054;-1.616;2022-07-11T01:35:20;3.92;;;0.80;;
67072;SDS011;58443;48.054;-1.616;2022-07-11T01:37:47;2.80;;;0.73;;
67072;SDS011;58443;48.054;-1.616;2022-07-11T01:40:13;2.93;;;0.87;;
67072;SDS011;58443;48.054;-1.616;2022-07-11T01:42:39;3.55;;;0.73;;
67072;SDS011;58443;48.054;-1.616;2022-07-11T01:45:05;2.47;;;0.70;;
67072;SDS011;58443;48.054;-1.616;2022-07-11T01:47:32;2.33;;;0.70;;
67072;SDS011;58443;48.054;-1.616;2022-07-11T01:49:58;2.55;;;0.90;;
67072;SDS011;58443;48.054;-1.616;2022-07-11T01:52:24;2.57;;;0.57;;
67072;SDS011;58443;48.054;-1.616;2022-07-11T01:54:51;3.38;;;0.82;;
67072;SDS011;58443;48.054;-1.616;2022-07-11T01:57:17;2.53;;;0.70;;
67072;SDS011;58443;48.054;-1.616;2022-07-11T01:59:43;2.47;;;0.77;;
67072;SDS011;58443;48.054;-1.616;2022-07-11T02:02:09;2.63;;;0.90;;
67072;SDS011;58443;48.054;-1.616;2022-07-11T02:04:35;2.77;;;0.90;;
67072;SDS011;58443;48.054;-1.616;2022-07-11T02:07:01;2.55;;;0.77;;
67072;SDS011;58443;48.054;-1.616;2022-07-11T02:09:27;3.75;;;0.80;;
67072;SDS011;58443;48.054;-1.616;2022-07-11T02:11:53;2.35;;;0.73;;
67072;SDS011;58443;48.054;-1.616;2022-07-11T02:14:19;2.70;;;0.80;;
67072;SDS011;58443;48.054;-1.616;2022-07-11T02:16:46;2.63;;;0.80;;
67072;SDS011;58443;48.054;-1.616;2022-07-11T02:19:13;2.97;;;0.82;;
67072;SDS011;58443;48.054;-1.616;2022-07-11T02:21:39;2.55;;;0.75;;
67072;SDS011;58443;48.054;-1.616;2022-07-11T02:24:05;2.60;;;0.80;;
67072;SDS011;58443;48.054;-1.616;2022-07-11T02:26:31;3.15;;;1.00;;
67072;SDS011;58443;48.054;-1.616;2022-07-11T02:28:57;3.20;;;0.83;;
67072;SDS011;58443;48.054;-1.616;2022-07-11T02:31:23;2.90;;;0.77;;
67072;SDS011;58443;48.054;-1.616;2022-07-11T02:33:49;3.03;;;1.38;;
67072;SDS011;58443;48.054;-1.616;2022-07-11T02:36:15;2.85;;;0.88;;
67072;SDS011;58443;48.054;-1.616;2022-07-11T02:38:42;2.30;;;0.80;;
67072;SDS011;58443;48.054;-1.616;2022-07-11T02:41:08;3.37;;;0.90;;
67072;SDS011;58443;48.054;-1.616;2022-07-11T02:43:34;2.38;;;0.70;;
67072;SDS011;58443;48.054;-1.616;2022-07-11T02:46:00;2.58;;;0.88;;
67072;SDS011;58443;48.054;-1.616;2022-07-11T02:48:26;2.50;;;0.70;;
67072;SDS011;58443;48.054;-1.616;2022-07-11T02:50:53;3.00;;;0.80;;
67072;SDS011;58443;48.054;-1.616;2022-07-11T02:53:19;2.63;;;0.80;;
67072;SDS011;58443;48.054;-1.616;2022-07-11T02:55:45;2.63;;;0.80;;
67072;SDS011;58443;48.054;-1.616;2022-07-11T02:58:13;2.53;;;0.85;;
67072;SDS011;58443;48.054;-1.616;2022-07-11T03:00:39;2.90;;;0.80;;
67072;SDS011;58443;48.054;-1.616;2022-07-11T03:03:06;2.33;;;0.80;;
67072;SDS011;58443;48.054;-1.616;2022-07-11T03:05:32;2.47;;;0.70;;
67072;SDS011;58443;48.054;-1.616;2022-07-11T03:07:58;3.15;;;0.80;;
67072;SDS011;58443;48.054;-1.616;2022-07-11T03:10:24;2.33;;;0.70;;
67072;SDS011;58443;48.054;-1.616;2022-07-11T03:12:50;2.65;;;0.70;;
67072;SDS011;58443;48.054;-1.616;2022-07-11T03:15:16;2.40;;;0.60;;
67072;SDS011;58443;48.054;-1.616;2022-07-11T03:17:42;3.10;;;0.90;;
67072;SDS011;58443;48.054;-1.616;2022-07-11T03:20:09;2.33;;;0.70;;
67072;SDS011;58443;48.054;-1.616;2022-07-11T03:22:35;2.30;;;0.70;;
67072;SDS011;58443;48.054;-1.616;2022-07-11T03:25:01;2.95;;;0.82;;
67072;SDS011;58443;48.054;-1.616;2022-07-11T03:27:30;2.85;;;0.75;;
67072;SDS011;58443;48.054;-1.616;2022-07-11T03:29:56;2.47;;;0.80;;
67072;SDS011;58443;48.054;-1.616;2022-07-11T03:32:22;2.78;;;0.80;;
67072;SDS011;58443;48.054;-1.616;2022-07-11T03:34:48;2.88;;;0.90;;
67072;SDS011;58443;48.054;-1.616;2022-07-11T03:37:38;2.60;;;0.70;;
67072;SDS011;58443;48.054;-1.616;2022-07-11T03:40:04;2.33;;;0.70;;
67072;SDS011;58443;48.054;-1.616;2022-07-11T03:42:30;2.87;;;0.80;;
67072;SDS011;58443;48.054;-1.616;2022-07-11T03:44:56;2.80;;;0.80;;
67072;SDS011;58443;48.054;-1.616;2022-07-11T03:47:22;3.10;;;0.77;;
67072;SDS011;58443;48.054;-1.616;2022-07-11T03:49:48;2.53;;;0.80;;
67072;SDS011;58443;48.054;-1.616;2022-07-11T03:52:14;2.63;;;0.90;;
67072;SDS011;58443;48.054;-1.616;2022-07-11T03:54:40;2.53;;;0.70;;
67072;SDS011;58443;48.054;-1.616;2022-07-11T03:57:08;3.13;;;0.85;;
67072;SDS011;58443;48.054;-1.616;2022-07-11T03:59:34;2.70;;;0.80;;
67072;SDS011;58443;48.054;-1.616;2022-07-11T04:02:00;2.63;;;0.52;;
67072;SDS011;58443;48.054;-1.616;2022-07-11T04:04:26;2.75;;;0.80;;
67072;SDS011;58443;48.054;-1.616;2022-07-11T04:06:52;2.30;;;0.70;;
67072;SDS011;58443;48.054;-1.616;2022-07-11T04:09:18;3.35;;;0.60;;
67072;SDS011;58443;48.054;-1.616;2022-07-11T04:11:47;2.50;;;0.80;;
67072;SDS011;58443;48.054;-1.616;2022-07-11T04:14:13;2.80;;;0.70;;
67072;SDS011;58443;48.054;-1.616;2022-07-11T04:16:40;2.85;;;0.90;;
67072;SDS011;58443;48.054;-1.616;2022-07-11T04:19:06;2.90;;;0.70;;
67072;SDS011;58443;48.054;-1.616;2022-07-11T04:21:32;2.85;;;0.80;;
67072;SDS011;58443;48.054;-1.616;2022-07-11T04:23:58;2.30;;;0.68;;
67072;SDS011;58443;48.054;-1.616;2022-07-11T04:26:24;3.40;;;0.82;;
67072;SDS011;58443;48.054;-1.616;2022-07-11T04:28:50;3.33;;;0.70;;
67072;SDS011;58443;48.054;-1.616;2022-07-11T04:31:16;2.10;;;0.70;;
67072;SDS011;58443;48.054;-1.616;2022-07-11T04:33:42;2.38;;;0.68;;
67072;SDS011;58443;48.054;-1.616;2022-07-11T04:36:08;2.42;;;0.63;;
67072;SDS011;58443;48.054;-1.616;2022-07-11T04:38:34;2.22;;;0.70;;
67072;SDS011;58443;48.054;-1.616;2022-07-11T04:41:00;2.10;;;0.60;;
67072;SDS011;58443;48.054;-1.616;2022-07-11T04:43:26;2.67;;;0.80;;
67072;SDS011;58443;48.054;-1.616;2022-07-11T04:45:52;2.33;;;0.70;;
67072;SDS011;58443;48.054;-1.616;2022-07-11T04:48:18;2.30;;;0.70;;
67072;SDS011;58443;48.054;-1.616;2022-07-11T04:50:44;3.00;;;0.60;;
67072;SDS011;58443;48.054;-1.616;2022-07-11T04:53:10;2.30;;;0.70;;
67072;SDS011;58443;48.054;-1.616;2022-07-11T04:55:37;2.40;;;0.70;;
67072;SDS011;58443;48.054;-1.616;2022-07-11T04:58:07;2.25;;;0.70;;
67072;SDS011;58443;48.054;-1.616;2022-07-11T05:00:33;2.40;;;0.70;;
67072;SDS011;58443;48.054;-1.616;2022-07-11T05:03:00;3.08;;;0.80;;
67072;SDS011;58443;48.054;-1.616;2022-07-11T05:05:26;2.50;;;0.80;;
67072;SDS011;58443;48.054;-1.616;2022-07-11T05:07:52;6.43;;;1.10;;
67072;SDS011;58443;48.054;-1.616;2022-07-11T05:10:18;7.00;;;1.25;;
67072;SDS011;58443;48.054;-1.616;2022-07-11T05:12:44;8.80;;;1.13;;
67072;SDS011;58443;48.054;-1.616;2022-07-11T05:15:11;6.50;;;1.30;;
67072;SDS011;58443;48.054;-1.616;2022-07-11T05:17:37;4.50;;;1.00;;
67072;SDS011;58443;48.054;-1.616;2022-07-11T05:20:03;4.73;;;0.90;;
67072;SDS011;58443;48.054;-1.616;2022-07-11T05:22:30;6.13;;;1.10;;
67072;SDS011;58443;48.054;-1.616;2022-07-11T05:24:56;4.80;;;1.10;;
67072;SDS011;58443;48.054;-1.616;2022-07-11T05:27:22;3.92;;;0.82;;
67072;SDS011;58443;48.054;-1.616;2022-07-11T05:29:48;4.13;;;1.08;;
67072;SDS011;58443;48.054;-1.616;2022-07-11T05:32:14;3.17;;;1.10;;
67072;SDS011;58443;48.054;-1.616;2022-07-11T05:34:40;4.78;;;1.13;;
67072;SDS011;58443;48.054;-1.616;2022-07-11T05:37:06;3.20;;;1.00;;
67072;SDS011;58443;48.054;-1.616;2022-07-11T05:39:33;3.97;;;0.90;;
67072;SDS011;58443;48.054;-1.616;2022-07-11T05:41:59;5.20;;;0.82;;
67072;SDS011;58443;48.054;-1.616;2022-07-11T05:44:25;5.63;;;0.80;;
67072;SDS011;58443;48.054;-1.616;2022-07-11T05:46:51;6.20;;;1.20;;
67072;SDS011;58443;48.054;-1.616;2022-07-11T05:49:17;4.30;;;1.20;;
67072;SDS011;58443;48.054;-1.616;2022-07-11T05:51:43;3.67;;;0.93;;
67072;SDS011;58443;48.054;-1.616;2022-07-11T05:54:09;5.60;;;0.90;;
67072;SDS011;58443;48.054;-1.616;2022-07-11T05:56:35;4.17;;;1.00;;
67072;SDS011;58443;48.054;-1.616;2022-07-11T05:59:01;4.75;;;1.08;;
67072;SDS011;58443;48.054;-1.616;2022-07-11T06:01:27;3.42;;;1.00;;
67072;SDS011;58443;48.054;-1.616;2022-07-11T06:03:56;3.78;;;1.10;;
67072;SDS011;58443;48.054;-1.616;2022-07-11T06:06:22;4.35;;;0.90;;
67072;SDS011;58443;48.054;-1.616;2022-07-11T06:08:48;8.83;;;1.13;;
67072;SDS011;58443;48.054;-1.616;2022-07-11T06:11:15;4.25;;;1.10;;
67072;SDS011;58443;48.054;-1.616;2022-07-11T06:13:42;4.47;;;1.13;;
67072;SDS011;58443;48.054;-1.616;2022-07-11T06:16:09;4.68;;;0.98;;
67072;SDS011;58443;48.054;-1.616;2022-07-11T06:18:36;6.10;;;1.08;;
67072;SDS011;58443;48.054;-1.616;2022-07-11T06:21:02;4.07;;;1.03;;
67072;SDS011;58443;48.054;-1.616;2022-07-11T06:23:29;2.90;;;1.00;;
67072;SDS011;58443;48.054;-1.616;2022-07-11T06:25:55;5.25;;;1.00;;
67072;SDS011;58443;48.054;-1.616;2022-07-11T06:28:21;10.68;;;1.00;;
67072;SDS011;58443;48.054;-1.616;2022-07-11T06:30:48;3.55;;;0.80;;
67072;SDS011;58443;48.054;-1.616;2022-07-11T06:33:17;3.97;;;0.80;;
67072;SDS011;58443;48.054;-1.616;2022-07-11T06:35:44;4.28;;;0.90;;
67072;SDS011;58443;48.054;-1.616;2022-07-11T06:38:10;5.38;;;1.17;;
67072;SDS011;58443;48.054;-1.616;2022-07-11T06:40:36;4.28;;;0.90;;
67072;SDS011;58443;48.054;-1.616;2022-07-11T06:43:02;3.38;;;0.85;;
67072;SDS011;58443;48.054;-1.616;2022-07-11T06:45:29;5.13;;;0.80;;
67072;SDS011;58443;48.054;-1.616;2022-07-11T06:47:55;3.28;;;0.80;;
67072;SDS011;58443;48.054;-1.616;2022-07-11T06:50:22;3.92;;;0.88;;
67072;SDS011;58443;48.054;-1.616;2022-07-11T06:52:48;4.70;;;1.02;;
67072;SDS011;58443;48.054;-1.616;2022-07-11T06:55:14;5.20;;;1.10;;
67072;SDS011;58443;48.054;-1.616;2022-07-11T06:57:40;3.53;;;0.80;;
67072;SDS011;58443;48.054;-1.616;2022-07-11T07:00:06;5.28;;;0.80;;
67072;SDS011;58443;48.054;-1.616;2022-07-11T07:02:33;3.38;;;0.90;;
67072;SDS011;58443;48.054;-1.616;2022-07-11T07:04:59;3.22;;;0.80;;
67072;SDS011;58443;48.054;-1.616;2022-07-11T07:07:26;5.30;;;1.02;;
67072;SDS011;58443;48.054;-1.616;2022-07-11T07:09:52;3.70;;;0.80;;
67072;SDS011;58443;48.054;-1.616;2022-07-11T07:12:19;3.22;;;0.80;;
67072;SDS011;58443;48.054;-1.616;2022-07-11T07:14:45;3.05;;;0.80;;
67072;SDS011;58443;48.054;-1.616;2022-07-11T07:17:11;3.03;;;0.80;;
67072;SDS011;58443;48.054;-1.616;2022-07-11T07:19:37;4.22;;;0.77;;
67072;SDS011;58443;48.054;-1.616;2022-07-11T07:22:03;2.70;;;0.80;;
67072;SDS011;58443;48.054;-1.616;2022-07-11T07:24:31;4.40;;;0.90;;
67072;SDS011;58443;48.054;-1.616;2022-07-11T07:26:57;3.90;;;0.90;;
67072;SDS011;58443;48.054;-1.616;2022-07-11T07:29:23;3.38;;;0.70;;
67072;SDS011;58443;48.054;-1.616;2022-07-11T07:31:51;3.50;;;0.80;;
67072;SDS011;58443;48.054;-1.616;2022-07-11T07:34:18;2.73;;;0.70;;
67072;SDS011;58443;48.054;-1.616;2022-07-11T07:36:45;3.60;;;0.80;;
67072;SDS011;58443;48.054;-1.616;2022-07-11T07:39:11;2.75;;;0.73;;
67072;SDS011;58443;48.054;-1.616;2022-07-11T07:41:37;2.90;;;0.75;;
67072;SDS011;58443;48.054;-1.616;2022-07-11T07:44:03;3.50;;;1.00;;
67072;SDS011;58443;48.054;-1.616;2022-07-11T07:46:29;2.83;;;0.73;;
67072;SDS011;58443;48.054;-1.616;2022-07-11T07:48:56;4.35;;;0.65;;
67072;SDS011;58443;48.054;-1.616;2022-07-11T07:51:22;2.30;;;0.60;;
67072;SDS011;58443;48.054;-1.616;2022-07-11T07:53:48;2.80;;;0.80;;
67072;SDS011;58443;48.054;-1.616;2022-07-11T07:56:14;2.40;;;0.70;;
67072;SDS011;58443;48.054;-1.616;2022-07-11T07:58:40;3.93;;;0.90;;
67072;SDS011;58443;48.054;-1.616;2022-07-11T08:01:06;2.75;;;0.70;;
67072;SDS011;58443;48.054;-1.616;2022-07-11T08:03:51;2.58;;;0.73;;
67072;SDS011;58443;48.054;-1.616;2022-07-11T08:06:18;3.17;;;0.77;;
67072;SDS011;58443;48.054;-1.616;2022-07-11T08:08:44;3.15;;;0.70;;
67072;SDS011;58443;48.054;-1.616;2022-07-11T08:11:10;3.90;;;0.80;;
67072;SDS011;58443;48.054;-1.616;2022-07-11T08:13:36;3.70;;;0.90;;
67072;SDS011;58443;48.054;-1.616;2022-07-11T08:16:03;3.38;;;0.70;;
67072;SDS011;58443;48.054;-1.616;2022-07-11T08:18:29;3.50;;;0.77;;
67072;SDS011;58443;48.054;-1.616;2022-07-11T08:20:55;2.80;;;0.70;;
67072;SDS011;58443;48.054;-1.616;2022-07-11T08:23:22;2.50;;;0.77;;
67072;SDS011;58443;48.054;-1.616;2022-07-11T08:25:48;2.30;;;0.70;;
67072;SDS011;58443;48.054;-1.616;2022-07-11T08:28:14;2.75;;;0.73;;
67072;SDS011;58443;48.054;-1.616;2022-07-11T08:30:40;2.30;;;0.63;;
67072;SDS011;58443;48.054;-1.616;2022-07-11T08:33:06;2.72;;;0.80;;
67072;SDS011;58443;48.054;-1.616;2022-07-11T08:35:32;3.37;;;0.60;;
67072;SDS011;58443;48.054;-1.616;2022-07-11T08:37:59;4.13;;;0.75;;
67072;SDS011;58443;48.054;-1.616;2022-07-11T08:40:25;3.65;;;0.80;;
67072;SDS011;58443;48.054;-1.616;2022-07-11T08:42:51;2.65;;;0.70;;
67072;SDS011;58443;48.054;-1.616;2022-07-11T08:45:18;2.88;;;0.70;;
67072;SDS011;58443;48.054;-1.616;2022-07-11T08:47:45;2.37;;;0.60;;
67072;SDS011;58443;48.054;-1.616;2022-07-11T08:50:29;3.05;;;0.80;;
67072;SDS011;58443;48.054;-1.616;2022-07-11T08:52:55;3.28;;;0.70;;
67072;SDS011;58443;48.054;-1.616;2022-07-11T08:55:23;2.97;;;0.73;;
67072;SDS011;58443;48.054;-1.616;2022-07-11T08:57:49;2.85;;;0.70;;
67072;SDS011;58443;48.054;-1.616;2022-07-11T09:00:16;2.50;;;0.60;;
67072;SDS011;58443;48.054;-1.616;2022-07-11T09:02:42;2.83;;;0.70;;
67072;SDS011;58443;48.054;-1.616;2022-07-11T09:05:09;2.13;;;0.60;;
67072;SDS011;58443;48.054;-1.616;2022-07-11T09:07:42;2.38;;;0.65;;
67072;SDS011;58443;48.054;-1.616;2022-07-11T09:10:08;2.67;;;0.63;;
67072;SDS011;58443;48.054;-1.616;2022-07-11T09:12:35;2.13;;;0.60;;
67072;SDS011;58443;48.054;-1.616;2022-07-11T09:15:01;3.42;;;0.85;;
67072;SDS011;58443;48.054;-1.616;2022-07-11T09:17:27;3.20;;;0.80;;
67072;SDS011;58443;48.054;-1.616;2022-07-11T09:19:55;3.15;;;0.70;;
67072;SDS011;58443;48.054;-1.616;2022-07-11T09:25:25;3.50;;;0.60;;
67072;SDS011;58443;48.054;-1.616;2022-07-11T09:28:01;3.10;;;0.75;;
67072;SDS011;58443;48.054;-1.616;2022-07-11T09:38:08;2.40;;;0.70;;
67072;SDS011;58443;48.054;-1.616;2022-07-11T09:40:35;2.90;;;0.68;;
67072;SDS011;58443;48.054;-1.616;2022-07-11T09:43:02;2.50;;;0.77;;
67072;SDS011;58443;48.054;-1.616;2022-07-11T09:45:29;3.13;;;0.73;;
67072;SDS011;58443;48.054;-1.616;2022-07-11T09:48:00;2.92;;;0.70;;
67072;SDS011;58443;48.054;-1.616;2022-07-11T09:50:27;2.90;;;0.73;;
67072;SDS011;58443;48.054;-1.616;2022-07-11T09:53:04;2.70;;;0.70;;
67072;SDS011;58443;48.054;-1.616;2022-07-11T09:55:37;3.17;;;0.60;;
67072;SDS011;58443;48.054;-1.616;2022-07-11T09:58:07;2.00;;;0.60;;
67072;SDS011;58443;48.054;-1.616;2022-07-11T10:00:33;2.40;;;0.68;;
67072;SDS011;58443;48.054;-1.616;2022-07-11T10:03:00;2.73;;;0.80;;
67072;SDS011;58443;48.054;-1.616;2022-07-11T10:05:45;2.10;;;0.60;;
67072;SDS011;58443;48.054;-1.616;2022-07-11T10:08:11;3.13;;;0.70;;
67072;SDS011;58443;48.054;-1.616;2022-07-11T10:10:37;2.72;;;0.50;;
67072;SDS011;58443;48.054;-1.616;2022-07-11T10:13:04;2.67;;;0.80;;
67072;SDS011;58443;48.054;-1.616;2022-07-11T10:15:36;2.30;;;0.70;;
67072;SDS011;58443;48.054;-1.616;2022-07-11T10:25:35;4.50;;;0.80;;
67072;SDS011;58443;48.054;-1.616;2022-07-11T10:28:08;4.17;;;0.60;;
67072;SDS011;58443;48.054;-1.616;2022-07-11T10:30:48;2.60;;;0.60;;
67072;SDS011;58443;48.054;-1.616;2022-07-11T10:33:15;4.32;;;0.80;;
67072;SDS011;58443;48.054;-1.616;2022-07-11T10:35:42;1.95;;;0.60;;
67072;SDS011;58443;48.054;-1.616;2022-07-11T10:38:09;3.05;;;0.80;;
67072;SDS011;58443;48.054;-1.616;2022-07-11T10:43:35;2.45;;;0.68;;
67072;SDS011;58443;48.054;-1.616;2022-07-11T10:46:08;3.03;;;0.73;;
67072;SDS011;58443;48.054;-1.616;2022-07-11T10:54:20;3.67;;;0.70;;
67072;SDS011;58443;48.054;-1.616;2022-07-11T10:59:18;2.22;;;0.57;;
67072;SDS011;58443;48.054;-1.616;2022-07-11T11:04:47;2.45;;;0.65;;
67072;SDS011;58443;48.054;-1.616;2022-07-11T11:09:59;2.22;;;0.60;;
67072;SDS011;58443;48.054;-1.616;2022-07-11T11:15:40;2.40;;;0.60;;
67072;SDS011;58443;48.054;-1.616;2022-07-11T11:23:23;3.45;;;0.77;;
67072;SDS011;58443;48.054;-1.616;2022-07-11T11:25:51;2.20;;;0.50;;
67072;SDS011;58443;48.054;-1.616;2022-07-11T11:28:20;2.40;;;0.60;;
67072;SDS011;58443;48.054;-1.616;2022-07-11T11:30:53;2.22;;;0.60;;
67072;SDS011;58443;48.054;-1.616;2022-07-11T11:33:19;2.23;;;0.63;;
67072;SDS011;58443;48.054;-1.616;2022-07-11T11:35:45;2.03;;;0.60;;
67072;SDS011;58443;48.054;-1.616;2022-07-11T11:38:23;2.38;;;0.70;;
67072;SDS011;58443;48.054;-1.616;2022-07-11T11:40:49;2.47;;;0.60;;
67072;SDS011;58443;48.054;-1.616;2022-07-11T11:43:19;1.95;;;0.60;;
67072;SDS011;58443;48.054;-1.616;2022-07-11T11:45:49;2.10;;;0.50;;
67072;SDS011;58443;48.054;-1.616;2022-07-11T11:48:33;2.05;;;0.50;;
67072;SDS011;58443;48.054;-1.616;2022-07-11T11:51:03;2.03;;;0.55;;
67072;SDS011;58443;48.054;-1.616;2022-07-11T11:53:39;1.90;;;0.60;;
67072;SDS011;58443;48.054;-1.616;2022-07-11T11:58:39;2.00;;;0.60;;
67072;SDS011;58443;48.054;-1.616;2022-07-11T12:01:05;1.83;;;0.50;;
67072;SDS011;58443;48.054;-1.616;2022-07-11T12:06:12;2.38;;;0.57;;
67072;SDS011;58443;48.054;-1.616;2022-07-11T12:08:38;2.50;;;0.70;;
67072;SDS011;58443;48.054;-1.616;2022-07-11T12:11:04;2.23;;;0.50;;
67072;SDS011;58443;48.054;-1.616;2022-07-11T12:13:30;2.53;;;0.60;;
67072;SDS011;58443;48.054;-1.616;2022-07-11T12:15:56;2.60;;;0.70;;
67072;SDS011;58443;48.054;-1.616;2022-07-11T12:18:41;2.58;;;0.80;;
67072;SDS011;58443;48.054;-1.616;2022-07-11T12:21:11;3.50;;;0.70;;
67072;SDS011;58443;48.054;-1.616;2022-07-11T12:23:37;3.83;;;0.50;;
67072;SDS011;58443;48.054;-1.616;2022-07-11T12:26:03;2.10;;;0.60;;
67072;SDS011;58443;48.054;-1.616;2022-07-11T12:28:32;2.60;;;0.60;;
67072;SDS011;58443;48.054;-1.616;2022-07-11T12:30:58;2.00;;;0.60;;
67072;SDS011;58443;48.054;-1.616;2022-07-11T12:33:24;1.63;;;0.43;;
67072;SDS011;58443;48.054;-1.616;2022-07-11T12:36:00;2.30;;;0.50;;
67072;SDS011;58443;48.054;-1.616;2022-07-11T12:38:46;2.10;;;0.70;;
67072;SDS011;58443;48.054;-1.616;2022-07-11T12:41:13;2.30;;;0.60;;
67072;SDS011;58443;48.054;-1.616;2022-07-11T12:43:40;2.40;;;0.63;;
67072;SDS011;58443;48.054;-1.616;2022-07-11T12:46:25;2.40;;;0.57;;
67072;SDS011;58443;48.054;-1.616;2022-07-11T12:48:53;2.30;;;0.70;;
67072;SDS011;58443;48.054;-1.616;2022-07-11T12:51:31;3.28;;;0.60;;
67072;SDS011;58443;48.054;-1.616;2022-07-11T12:54:00;3.83;;;0.65;;
67072;SDS011;58443;48.054;-1.616;2022-07-11T12:56:27;2.53;;;0.70;;
67072;SDS011;58443;48.054;-1.616;2022-07-11T12:58:53;2.35;;;0.60;;
67072;SDS011;58443;48.054;-1.616;2022-07-11T13:01:19;2.20;;;0.60;;
67072;SDS011;58443;48.054;-1.616;2022-07-11T13:03:45;2.10;;;0.60;;
67072;SDS011;58443;48.054;-1.616;2022-07-11T13:06:11;2.28;;;0.65;;
67072;SDS011;58443;48.054;-1.616;2022-07-11T13:08:37;3.35;;;0.50;;
67072;SDS011;58443;48.054;-1.616;2022-07-11T13:11:13;1.90;;;0.50;;
67072;SDS011;58443;48.054;-1.616;2022-07-11T13:13:40;2.47;;;0.50;;
67072;SDS011;58443;48.054;-1.616;2022-07-11T13:16:06;2.08;;;0.50;;
67072;SDS011;58443;48.054;-1.616;2022-07-11T13:18:33;2.10;;;0.60;;
67072;SDS011;58443;48.054;-1.616;2022-07-11T13:20:59;2.80;;;0.60;;
67072;SDS011;58443;48.054;-1.616;2022-07-11T13:23:26;3.45;;;0.73;;
67072;SDS011;58443;48.054;-1.616;2022-07-11T13:25:52;2.27;;;0.57;;
67072;SDS011;58443;48.054;-1.616;2022-07-11T13:28:18;2.10;;;0.50;;
67072;SDS011;58443;48.054;-1.616;2022-07-11T13:30:45;2.22;;;0.40;;
67072;SDS011;58443;48.054;-1.616;2022-07-11T13:33:12;2.05;;;0.52;;
67072;SDS011;58443;48.054;-1.616;2022-07-11T13:35:38;2.25;;;0.60;;
67072;SDS011;58443;48.054;-1.616;2022-07-11T13:38:04;2.07;;;0.50;;
67072;SDS011;58443;48.054;-1.616;2022-07-11T13:40:31;2.20;;;0.43;;
67072;SDS011;58443;48.054;-1.616;2022-07-11T13:42:58;1.88;;;0.50;;
67072;SDS011;58443;48.054;-1.616;2022-07-11T13:45:26;2.67;;;0.50;;
67072;SDS011;58443;48.054;-1.616;2022-07-11T13:47:52;2.10;;;0.50;;
67072;SDS011;58443;48.054;-1.616;2022-07-11T13:50:18;2.40;;;0.60;;
67072;SDS011;58443;48.054;-1.616;2022-07-11T13:52:46;1.90;;;0.57;;
67072;SDS011;58443;48.054;-1.616;2022-07-11T13:55:16;3.15;;;0.50;;
67072;SDS011;58443;48.054;-1.616;2022-07-11T13:57:42;2.67;;;0.60;;
67072;SDS011;58443;48.054;-1.616;2022-07-11T14:00:09;2.00;;;0.60;;
67072;SDS011;58443;48.054;-1.616;2022-07-11T14:02:35;2.20;;;0.50;;
67072;SDS011;58443;48.054;-1.616;2022-07-11T14:05:01;2.13;;;0.52;;
67072;SDS011;58443;48.054;-1.616;2022-07-11T14:07:27;2.25;;;0.60;;
67072;SDS011;58443;48.054;-1.616;2022-07-11T14:09:53;1.85;;;0.45;;
67072;SDS011;58443;48.054;-1.616;2022-07-11T14:12:20;1.77;;;0.43;;
67072;SDS011;58443;48.054;-1.616;2022-07-11T14:14:46;2.17;;;0.60;;
67072;SDS011;58443;48.054;-1.616;2022-07-11T14:17:12;1.90;;;0.47;;
67072;SDS011;58443;48.054;-1.616;2022-07-11T14:19:38;2.03;;;0.57;;
67072;SDS011;58443;48.054;-1.616;2022-07-11T14:22:05;1.77;;;0.40;;
67072;SDS011;58443;48.054;-1.616;2022-07-11T14:24:32;3.03;;;0.50;;
67072;SDS011;58443;48.054;-1.616;2022-07-11T14:26:58;2.20;;;0.40;;
67072;SDS011;58443;48.054;-1.616;2022-07-11T14:29:24;2.67;;;0.55;;
67072;SDS011;58443;48.054;-1.616;2022-07-11T14:31:51;2.03;;;0.57;;
67072;SDS011;58443;48.054;-1.616;2022-07-11T14:34:19;2.20;;;0.50;;
67072;SDS011;58443;48.054;-1.616;2022-07-11T14:36:45;2.97;;;0.50;;
67072;SDS011;58443;48.054;-1.616;2022-07-11T14:39:12;2.23;;;0.50;;
67072;SDS011;58443;48.054;-1.616;2022-07-11T14:41:38;1.90;;;0.40;;
67072;SDS011;58443;48.054;-1.616;2022-07-11T14:44:04;1.95;;;0.47;;
67072;SDS011;58443;48.054;-1.616;2022-07-11T14:46:30;1.80;;;0.40;;
67072;SDS011;58443;48.054;-1.616;2022-07-11T14:48:57;2.00;;;0.55;;
67072;SDS011;58443;48.054;-1.616;2022-07-11T14:51:23;2.33;;;0.60;;
67072;SDS011;58443;48.054;-1.616;2022-07-11T14:53:49;2.50;;;0.50;;
67072;SDS011;58443;48.054;-1.616;2022-07-11T14:56:15;2.78;;;0.60;;
67072;SDS011;58443;48.054;-1.616;2022-07-11T14:58:41;1.80;;;0.40;;
67072;SDS011;58443;48.054;-1.616;2022-07-11T15:01:07;1.77;;;0.40;;
67072;SDS011;58443;48.054;-1.616;2022-07-11T15:03:33;2.33;;;0.50;;
67072;SDS011;58443;48.054;-1.616;2022-07-11T15:06:02;1.88;;;0.40;;
67072;SDS011;58443;48.054;-1.616;2022-07-11T15:08:29;1.98;;;0.60;;
67072;SDS011;58443;48.054;-1.616;2022-07-11T15:11:14;2.45;;;0.57;;
67072;SDS011;58443;48.054;-1.616;2022-07-11T15:13:59;1.98;;;0.50;;
67072;SDS011;58443;48.054;-1.616;2022-07-11T15:16:25;2.20;;;0.40;;
67072;SDS011;58443;48.054;-1.616;2022-07-11T15:19:00;2.10;;;0.50;;
67072;SDS011;58443;48.054;-1.616;2022-07-11T15:21:27;2.00;;;0.50;;
67072;SDS011;58443;48.054;-1.616;2022-07-11T15:23:53;2.17;;;0.40;;
67072;SDS011;58443;48.054;-1.616;2022-07-11T15:26:19;2.88;;;0.50;;